| time (UTC) | temp C | wind direction | speed KPH | gust KPH | rain 1hr cm | rain 24hr cm | rain mn cm | humidity % | barometer mb |
| 20260831113051 | 22 | 148 | 1.6 | 4.8 | 0.00 | 0.00 | 0.00 | 93 | 1020.3 |
| 20260831111544 | 22 | 145 | 1.6 | 4.8 | 0.00 | 0.00 | 0.00 | 94 | 1020.1 |
| 20260831110042 | 22 | 136 | 0.0 | 3.2 | 0.00 | 0.00 | 0.00 | 93 | 1020.0 |
| 20260831104545 | 22 | 135 | 1.6 | 3.2 | 0.00 | 0.00 | 0.00 | 93 | 1019.8 |
| 20260831103056 | 22 | 134 | 3.2 | 6.4 | 0.00 | 0.00 | 0.00 | 93 | 1019.7 |
| 20260831101540 | 22 | 133 | 3.2 | 6.4 | 0.00 | 0.00 | 0.00 | 93 | 1019.7 |
| 20260831100039 | 22 | 169 | 1.6 | 4.8 | 0.00 | 0.00 | 0.00 | 93 | 1019.5 |
| 20260831094535 | 22 | 169 | 0.0 | 4.8 | 0.00 | 0.00 | 0.00 | 93 | 1019.4 |
| 20260831093035 | 22 | 169 | 1.6 | 4.8 | 0.00 | 0.00 | 0.00 | 93 | 1019.3 |
| 20260831091533 | 22 | 169 | 1.6 | 4.8 | 0.00 | 0.00 | 0.00 | 93 | 1019.2 |
| 20260831090032 | 22 | 169 | 1.6 | 3.2 | 0.00 | 0.00 | 0.00 | 93 | 1019.2 |
| 20260831084531 | 22 | 169 | 1.6 | 3.2 | 0.00 | 0.00 | 0.00 | 92 | 1019.0 |
| 20260831083029 | 23 | 169 | 0.0 | 0.0 | 0.00 | 0.00 | 0.00 | 91 | 1019.0 |
| 20260831081528 | 23 | 169 | 0.0 | 0.0 | 0.00 | 0.00 | 0.00 | 91 | 1019.1 |
| 20260831080046 | 23 | 169 | 0.0 | 4.8 | 0.00 | 0.00 | 0.00 | 91 | 1018.7 |
| 20260831074524 | 23 | 169 | 1.6 | 4.8 | 0.00 | 0.00 | 0.00 | 90 | 1018.6 |
| 20260831073030 | 23 | 157 | 4.8 | 8.0 | 0.00 | 0.00 | 0.00 | 90 | 1018.6 |
| 20260831071521 | 23 | 163 | 1.6 | 4.8 | 0.00 | 0.00 | 0.00 | 90 | 1018.8 |
| 20260831070023 | 23 | 163 | 1.6 | 4.8 | 0.00 | 0.00 | 0.00 | 89 | 1018.9 |
| 20260831064517 | 24 | 159 | 1.6 | 4.8 | 0.00 | 0.00 | 0.00 | 88 | 1019.1 |
| 20260831063020 | 24 | 154 | 1.6 | 4.8 | 0.00 | 0.00 | 0.00 | 88 | 1019.0 |
| 20260831061515 | 24 | 150 | 3.2 | 8.0 | 0.00 | 0.00 | 0.00 | 87 | 1019.0 |
| 20260831060013 | 24 | 142 | 4.8 | 8.0 | 0.00 | 0.00 | 0.00 | 85 | 1019.1 |
| 20260831054511 | 24 | 144 | 3.2 | 4.8 | 0.00 | 0.00 | 0.00 | 85 | 1019.2 |
| 20260831053014 | 25 | 144 | 1.6 | 3.2 | 0.00 | 0.00 | 0.00 | 84 | 1019.2 |
| 20260831051511 | 25 | 144 | 3.2 | 8.0 | 0.00 | 0.00 | 0.00 | 83 | 1019.2 |
| 20260831050004 | 25 | 132 | 6.4 | 11.3 | 0.00 | 0.00 | 0.00 | 83 | 1019.0 |
| 20260831044512 | 25 | 123 | 3.2 | 6.4 | 0.00 | 0.00 | 0.00 | 82 | 1019.1 |
| 20260831043003 | 25 | 115 | 4.8 | 6.4 | 0.00 | 0.00 | 0.00 | 80 | 1019.1 |
| 20260831041508 | 26 | 113 | 6.4 | 9.7 | 0.00 | 0.00 | 0.00 | 78 | 1019.0 |
| 20260831040001 | 26 | 112 | 4.8 | 11.3 | 0.00 | 0.00 | 0.00 | 76 | 1019.1 |
| 20260831034501 | 27 | 112 | 6.4 | 14.5 | 0.00 | 0.00 | 0.00 | 75 | 1019.0 |
| 20260831033001 | 27 | 115 | 8.0 | 12.9 | 0.00 | 0.00 | 0.00 | 74 | 1018.9 |
| 20260831031610 | 27 | 115 | 4.8 | 9.7 | 0.00 | 0.00 | 0.00 | 72 | 1018.9 |
| 20260831031501 | 27 | 115 | 4.8 | 9.7 | 0.00 | 0.00 | 0.00 | 72 | 1018.8 |
| 20260831030116 | 27 | 113 | 3.2 | 6.4 | 0.00 | 0.00 | 0.00 | 74 | 1018.8 |
| 20260831024559 | 27 | 109 | 1.6 | 4.8 | 0.00 | 0.00 | 0.00 | 74 | 1018.9 |
| 20260831023059 | 27 | 108 | 3.2 | 9.7 | 0.00 | 0.00 | 0.00 | 72 | 1018.7 |
| 20260831021559 | 27 | 109 | 4.8 | 9.7 | 0.00 | 0.00 | 0.00 | 72 | 1018.6 |
| 20260831020058 | 27 | 118 | 4.8 | 9.7 | 0.00 | 0.00 | 0.00 | 73 | 1018.5 |
| 20260831014558 | 28 | 145 | 1.6 | 4.8 | 0.00 | 0.00 | 0.00 | 74 | 1018.5 |
| 20260831013057 | 28 | 207 | 0.0 | 1.6 | 0.00 | 0.00 | 0.00 | 72 | 1018.4 |
| 20260831011557 | 28 | 207 | 1.6 | 4.8 | 0.00 | 0.00 | 0.00 | 69 | 1018.1 |
| 20260831010101 | 30 | 209 | 1.6 | 3.2 | 0.00 | 0.00 | 0.00 | 67 | 1018.1 |
| 20260831004553 | 30 | 209 | 1.6 | 3.2 | 0.00 | 0.00 | 0.00 | 63 | 1018.1 |
| 20260831003052 | 31 | 209 | 0.0 | 1.6 | 0.00 | 0.00 | 0.00 | 63 | 1018.0 |
| 20260831001550 | 32 | 209 | 1.6 | 3.2 | 0.00 | 0.00 | 0.00 | 61 | 1017.8 |
| 20260831000059 | 32 | 209 | 1.6 | 3.2 | 0.00 | 0.00 | 0.00 | 61 | 1017.7 |
| 20260830234558 | 32 | 209 | 3.2 | 4.8 | 0.00 | 0.00 | 0.00 | 61 | 1017.8 |
| 20260830233047 | 32 | 209 | 1.6 | 4.8 | 0.00 | 0.00 | 0.00 | 62 | 1017.9 |
| 20260830231548 | 32 | 209 | 3.2 | 8.0 | 0.00 | 0.00 | 0.00 | 61 | 1018.0 |
| 20260830230046 | 32 | 211 | 6.4 | 11.3 | 0.00 | 0.00 | 0.00 | 57 | 1017.9 |
| 20260830224550 | 32 | 211 | 6.4 | 11.3 | 0.00 | 0.00 | 0.00 | 57 | 1018.0 |
| 20260830223053 | 33 | 203 | 4.8 | 12.9 | 0.00 | 0.00 | 0.00 | 56 | 1018.1 |
| 20260830221558 | 33 | 209 | 6.4 | 12.9 | 0.00 | 0.00 | 0.00 | 55 | 1018.2 |
| 20260830220043 | 33 | 207 | 11.3 | 19.3 | 0.00 | 0.00 | 0.00 | 52 | 1018.1 |
| 20260830214540 | 33 | 217 | 9.7 | 19.3 | 0.00 | 0.00 | 0.00 | 51 | 1018.2 |
| 20260830213037 | 33 | 221 | 14.5 | 22.5 | 0.00 | 0.00 | 0.00 | 52 | 1018.2 |
| 20260830211536 | 33 | 219 | 16.1 | 22.5 | 0.00 | 0.00 | 0.00 | 51 | 1018.5 |
| 20260830210036 | 33 | 202 | 17.7 | 25.7 | 0.00 | 0.00 | 0.00 | 49 | 1018.8 |
| 20260830204541 | 33 | 205 | 14.5 | 25.7 | 0.00 | 0.00 | 0.00 | 48 | 1018.9 |
| 20260830203036 | 33 | 221 | 14.5 | 24.1 | 0.00 | 0.00 | 0.00 | 49 | 1019.1 |
| 20260830201529 | 33 | 210 | 16.1 | 27.4 | 0.00 | 0.00 | 0.00 | 47 | 1019.3 |
| 20260830200048 | 33 | 200 | 12.9 | 24.1 | 0.00 | 0.00 | 0.00 | 49 | 1019.3 |
| 20260830194526 | 33 | 185 | 12.9 | 27.4 | 0.00 | 0.00 | 0.00 | 49 | 1019.5 |
| 20260830193027 | 33 | 194 | 9.7 | 22.5 | 0.00 | 0.00 | 0.00 | 51 | 1019.6 |
| 20260830191522 | 33 | 214 | 19.3 | 27.4 | 0.00 | 0.00 | 0.00 | 47 | 1019.7 |
| 20260830190021 | 32 | 148 | 12.9 | 19.3 | 0.00 | 0.00 | 0.00 | 50 | 1019.9 |
| 20260830184522 | 32 | 199 | 17.7 | 25.7 | 0.00 | 0.00 | 0.00 | 48 | 1020.1 |
| 20260830183019 | 32 | 223 | 19.3 | 30.6 | 0.00 | 0.00 | 0.00 | 47 | 1020.1 |
| 20260830181517 | 32 | 219 | 12.9 | 29.0 | 0.00 | 0.00 | 0.00 | 51 | 1020.3 |
| 20260830180017 | 32 | 217 | 12.9 | 22.5 | 0.00 | 0.00 | 0.00 | 54 | 1020.3 |
| 20260830174513 | 32 | 215 | 14.5 | 24.1 | 0.00 | 0.00 | 0.00 | 53 | 1020.4 |
| 20260830173011 | 32 | 206 | 16.1 | 24.1 | 0.00 | 0.00 | 0.00 | 53 | 1020.6 |
| 20260830171511 | 31 | 218 | 14.5 | 25.7 | 0.00 | 0.00 | 0.00 | 53 | 1020.7 |
| 20260830170009 | 31 | 228 | 14.5 | 19.3 | 0.00 | 0.00 | 0.00 | 55 | 1020.8 |
| 20260830164520 | 31 | 199 | 11.3 | 19.3 | 0.00 | 0.00 | 0.00 | 54 | 1020.8 |
| 20260830163002 | 31 | 186 | 9.7 | 24.1 | 0.00 | 0.00 | 0.00 | 60 | 1021.0 |
| 20260830161609 | 30 | 206 | 12.9 | 19.3 | 0.00 | 0.00 | 0.00 | 63 | 1020.9 |
| 20260830160057 | 30 | 205 | 9.7 | 14.5 | 0.00 | 0.00 | 0.00 | 67 | 1020.9 |
| 20260830154559 | 29 | 175 | 8.0 | 14.5 | 0.00 | 0.00 | 0.00 | 68 | 1020.9 |
| 20260830153059 | 28 | 213 | 6.4 | 11.3 | 0.00 | 0.00 | 0.00 | 75 | 1020.8 |
| 20260830151547 | 27 | 178 | 4.8 | 9.7 | 0.00 | 0.00 | 0.00 | 79 | 1020.8 |
| 20260830150043 | 27 | 191 | 6.4 | 11.3 | 0.00 | 0.00 | 0.00 | 79 | 1020.8 |
| 20260830144538 | 26 | 182 | 8.0 | 12.9 | 0.00 | 0.00 | 0.00 | 81 | 1020.9 |
| 20260830143035 | 26 | 178 | 4.8 | 9.7 | 0.00 | 0.00 | 0.00 | 85 | 1020.8 |
| 20260830141533 | 25 | 218 | 8.0 | 11.3 | 0.00 | 0.00 | 0.00 | 87 | 1020.8 |
| 20260830140028 | 24 | 198 | 8.0 | 12.9 | 0.00 | 0.00 | 0.00 | 90 | 1020.8 |
| 20260830134527 | 23 | 180 | 3.2 | 4.8 | 0.00 | 0.00 | 0.00 | 92 | 1020.9 |
| 20260830133024 | 22 | 179 | 1.6 | 6.4 | 0.00 | 0.00 | 0.00 | 94 | 1021.1 |
| 20260830131532 | 21 | 180 | 0.0 | 0.0 | 0.00 | 0.00 | 0.00 | 94 | 1021.3 |
| 20260830130017 | 21 | 132 | 0.0 | 0.0 | 0.00 | 0.00 | 0.00 | 95 | 1021.2 |
| 20260830124515 | 21 | 131 | 0.0 | 0.0 | 0.00 | 0.00 | 0.00 | 96 | 1021.1 |
| 20260830123014 | 20 | 131 | 0.0 | 4.8 | 0.00 | 0.00 | 0.00 | 96 | 1020.9 |
| 20260830121514 | 19 | 130 | 1.6 | 6.4 | 0.00 | 0.00 | 0.00 | 95 | 1020.8 |
| 20260830120012 | 19 | 78 | 1.6 | 4.8 | 0.00 | 0.00 | 0.00 | 95 | 1020.8 |
| 20260830114513 | 19 | 47 | 0.0 | 1.6 | 0.00 | 0.00 | 0.00 | 95 | 1020.4 |